sensor_id;sensor_type;location;lat;lon;timestamp;P1;durP1;ratioP1;P2;durP2;ratioP2
8312;SDS011;4194;43.408;24.626;2022-11-20T00:00:55;28.23;;;18.50;;
8312;SDS011;4194;43.408;24.626;2022-11-20T00:03:21;24.63;;;18.43;;
8312;SDS011;4194;43.408;24.626;2022-11-20T00:05:47;33.23;;;20.67;;
8312;SDS011;4194;43.408;24.626;2022-11-20T00:08:13;28.63;;;20.20;;
8312;SDS011;4194;43.408;24.626;2022-11-20T00:10:39;25.50;;;18.27;;
8312;SDS011;4194;43.408;24.626;2022-11-20T00:13:05;28.13;;;20.08;;
8312;SDS011;4194;43.408;24.626;2022-11-20T00:15:32;26.93;;;19.33;;
8312;SDS011;4194;43.408;24.626;2022-11-20T00:17:58;26.60;;;18.77;;
8312;SDS011;4194;43.408;24.626;2022-11-20T00:20:23;23.50;;;18.00;;
8312;SDS011;4194;43.408;24.626;2022-11-20T00:22:50;26.00;;;18.17;;
8312;SDS011;4194;43.408;24.626;2022-11-20T00:25:16;24.00;;;16.60;;
8312;SDS011;4194;43.408;24.626;2022-11-20T00:27:41;20.77;;;16.20;;
8312;SDS011;4194;43.408;24.626;2022-11-20T00:30:08;25.67;;;17.47;;
8312;SDS011;4194;43.408;24.626;2022-11-20T00:32:34;23.73;;;16.80;;
8312;SDS011;4194;43.408;24.626;2022-11-20T00:34:59;24.77;;;17.00;;
8312;SDS011;4194;43.408;24.626;2022-11-20T00:37:25;24.57;;;16.40;;
8312;SDS011;4194;43.408;24.626;2022-11-20T00:39:51;24.53;;;16.43;;
8312;SDS011;4194;43.408;24.626;2022-11-20T00:42:17;20.33;;;16.23;;
8312;SDS011;4194;43.408;24.626;2022-11-20T00:44:43;21.50;;;16.30;;
8312;SDS011;4194;43.408;24.626;2022-11-20T00:47:08;25.63;;;17.23;;
8312;SDS011;4194;43.408;24.626;2022-11-20T00:49:34;26.57;;;17.47;;
8312;SDS011;4194;43.408;24.626;2022-11-20T00:52:00;24.23;;;17.47;;
8312;SDS011;4194;43.408;24.626;2022-11-20T00:54:25;23.80;;;17.80;;
8312;SDS011;4194;43.408;24.626;2022-11-20T00:56:54;24.27;;;18.27;;
8312;SDS011;4194;43.408;24.626;2022-11-20T00:59:20;27.63;;;18.17;;
8312;SDS011;4194;43.408;24.626;2022-11-20T01:01:46;25.93;;;18.50;;
8312;SDS011;4194;43.408;24.626;2022-11-20T01:04:11;23.53;;;17.63;;
8312;SDS011;4194;43.408;24.626;2022-11-20T01:06:37;25.10;;;18.13;;
8312;SDS011;4194;43.408;24.626;2022-11-20T01:09:09;25.70;;;17.90;;
8312;SDS011;4194;43.408;24.626;2022-11-20T01:11:38;24.90;;;17.67;;
8312;SDS011;4194;43.408;24.626;2022-11-20T01:14:06;24.87;;;17.23;;
8312;SDS011;4194;43.408;24.626;2022-11-20T01:16:35;27.17;;;17.40;;
8312;SDS011;4194;43.408;24.626;2022-11-20T01:19:04;23.00;;;16.60;;
8312;SDS011;4194;43.408;24.626;2022-11-20T01:21:32;24.83;;;16.83;;
8312;SDS011;4194;43.408;24.626;2022-11-20T01:24:00;23.50;;;15.67;;
8312;SDS011;4194;43.408;24.626;2022-11-20T01:26:27;22.17;;;17.20;;
8312;SDS011;4194;43.408;24.626;2022-11-20T01:28:55;25.43;;;16.80;;
8312;SDS011;4194;43.408;24.626;2022-11-20T01:31:22;24.63;;;18.10;;
8312;SDS011;4194;43.408;24.626;2022-11-20T01:33:51;22.13;;;17.33;;
8312;SDS011;4194;43.408;24.626;2022-11-20T01:36:18;25.20;;;17.70;;
8312;SDS011;4194;43.408;24.626;2022-11-20T01:38:46;28.17;;;18.77;;
8312;SDS011;4194;43.408;24.626;2022-11-20T01:41:12;31.27;;;18.63;;
8312;SDS011;4194;43.408;24.626;2022-11-20T01:43:59;24.70;;;17.53;;
8312;SDS011;4194;43.408;24.626;2022-11-20T01:46:26;26.20;;;18.40;;
8312;SDS011;4194;43.408;24.626;2022-11-20T01:48:54;24.10;;;17.73;;
8312;SDS011;4194;43.408;24.626;2022-11-20T01:51:45;24.60;;;17.97;;
8312;SDS011;4194;43.408;24.626;2022-11-20T01:54:25;21.93;;;16.23;;
8312;SDS011;4194;43.408;24.626;2022-11-20T01:56:58;23.87;;;16.60;;
8312;SDS011;4194;43.408;24.626;2022-11-20T01:59:25;25.57;;;17.33;;
8312;SDS011;4194;43.408;24.626;2022-11-20T02:01:53;22.17;;;16.37;;
8312;SDS011;4194;43.408;24.626;2022-11-20T02:04:19;20.80;;;14.77;;
8312;SDS011;4194;43.408;24.626;2022-11-20T02:06:47;19.77;;;14.60;;
8312;SDS011;4194;43.408;24.626;2022-11-20T02:09:16;20.90;;;14.80;;
8312;SDS011;4194;43.408;24.626;2022-11-20T02:11:42;23.00;;;15.33;;
8312;SDS011;4194;43.408;24.626;2022-11-20T02:14:08;23.03;;;16.17;;
8312;SDS011;4194;43.408;24.626;2022-11-20T02:16:39;24.07;;;16.43;;
8312;SDS011;4194;43.408;24.626;2022-11-20T02:19:11;22.87;;;14.73;;
8312;SDS011;4194;43.408;24.626;2022-11-20T02:24:21;24.53;;;15.90;;
8312;SDS011;4194;43.408;24.626;2022-11-20T02:27:00;25.00;;;16.97;;
8312;SDS011;4194;43.408;24.626;2022-11-20T02:34:54;22.53;;;16.17;;
8312;SDS011;4194;43.408;24.626;2022-11-20T02:37:22;20.90;;;15.67;;
8312;SDS011;4194;43.408;24.626;2022-11-20T02:39:52;20.37;;;15.57;;
8312;SDS011;4194;43.408;24.626;2022-11-20T02:42:18;18.57;;;13.93;;
8312;SDS011;4194;43.408;24.626;2022-11-20T02:44:44;21.40;;;15.97;;
8312;SDS011;4194;43.408;24.626;2022-11-20T02:47:10;20.57;;;15.43;;
8312;SDS011;4194;43.408;24.626;2022-11-20T02:49:36;21.47;;;15.40;;
8312;SDS011;4194;43.408;24.626;2022-11-20T02:52:01;21.67;;;16.10;;
8312;SDS011;4194;43.408;24.626;2022-11-20T02:54:27;26.00;;;17.13;;
8312;SDS011;4194;43.408;24.626;2022-11-20T02:56:53;25.17;;;17.53;;
8312;SDS011;4194;43.408;24.626;2022-11-20T02:59:18;28.83;;;18.23;;
8312;SDS011;4194;43.408;24.626;2022-11-20T03:01:44;31.37;;;20.90;;
8312;SDS011;4194;43.408;24.626;2022-11-20T03:04:10;31.43;;;21.63;;
8312;SDS011;4194;43.408;24.626;2022-11-20T03:06:35;38.43;;;22.80;;
8312;SDS011;4194;43.408;24.626;2022-11-20T03:09:01;36.23;;;23.97;;
8312;SDS011;4194;43.408;24.626;2022-11-20T03:11:27;44.77;;;25.90;;
8312;SDS011;4194;43.408;24.626;2022-11-20T03:13:53;55.97;;;30.07;;
8312;SDS011;4194;43.408;24.626;2022-11-20T03:16:20;67.60;;;35.23;;
8312;SDS011;4194;43.408;24.626;2022-11-20T03:18:47;89.70;;;45.53;;
8312;SDS011;4194;43.408;24.626;2022-11-20T03:21:14;67.27;;;35.20;;
8312;SDS011;4194;43.408;24.626;2022-11-20T03:23:41;49.77;;;28.30;;
8312;SDS011;4194;43.408;24.626;2022-11-20T03:26:11;44.83;;;26.07;;
8312;SDS011;4194;43.408;24.626;2022-11-20T03:28:37;40.03;;;24.17;;
8312;SDS011;4194;43.408;24.626;2022-11-20T03:31:10;38.73;;;23.63;;
8312;SDS011;4194;43.408;24.626;2022-11-20T03:33:37;39.43;;;23.23;;
8312;SDS011;4194;43.408;24.626;2022-11-20T03:36:05;44.80;;;25.80;;
8312;SDS011;4194;43.408;24.626;2022-11-20T03:38:32;45.20;;;24.70;;
8312;SDS011;4194;43.408;24.626;2022-11-20T03:41:02;47.40;;;25.87;;
8312;SDS011;4194;43.408;24.626;2022-11-20T03:43:30;48.23;;;25.33;;
8312;SDS011;4194;43.408;24.626;2022-11-20T03:45:56;48.37;;;26.20;;
8312;SDS011;4194;43.408;24.626;2022-11-20T03:48:22;50.87;;;27.57;;
8312;SDS011;4194;43.408;24.626;2022-11-20T03:50:47;56.37;;;28.73;;
8312;SDS011;4194;43.408;24.626;2022-11-20T03:53:14;50.90;;;27.10;;
8312;SDS011;4194;43.408;24.626;2022-11-20T03:55:40;56.30;;;27.63;;
8312;SDS011;4194;43.408;24.626;2022-11-20T03:58:06;58.30;;;29.20;;
8312;SDS011;4194;43.408;24.626;2022-11-20T04:00:32;60.13;;;29.97;;
8312;SDS011;4194;43.408;24.626;2022-11-20T04:02:58;58.53;;;28.80;;
8312;SDS011;4194;43.408;24.626;2022-11-20T04:05:24;52.10;;;27.97;;
8312;SDS011;4194;43.408;24.626;2022-11-20T04:07:50;56.37;;;30.17;;
8312;SDS011;4194;43.408;24.626;2022-11-20T04:10:16;57.33;;;28.67;;
8312;SDS011;4194;43.408;24.626;2022-11-20T04:12:42;57.60;;;30.43;;
8312;SDS011;4194;43.408;24.626;2022-11-20T04:15:07;59.50;;;29.03;;
8312;SDS011;4194;43.408;24.626;2022-11-20T04:17:34;64.03;;;30.57;;
8312;SDS011;4194;43.408;24.626;2022-11-20T04:19:59;58.67;;;30.30;;
8312;SDS011;4194;43.408;24.626;2022-11-20T04:22:25;63.67;;;30.57;;
8312;SDS011;4194;43.408;24.626;2022-11-20T04:24:51;65.43;;;29.17;;
8312;SDS011;4194;43.408;24.626;2022-11-20T04:27:17;83.63;;;34.83;;
8312;SDS011;4194;43.408;24.626;2022-11-20T04:29:42;66.57;;;32.73;;
8312;SDS011;4194;43.408;24.626;2022-11-20T04:32:08;76.13;;;34.17;;
8312;SDS011;4194;43.408;24.626;2022-11-20T04:34:34;74.63;;;32.93;;
8312;SDS011;4194;43.408;24.626;2022-11-20T04:37:00;75.90;;;33.83;;
8312;SDS011;4194;43.408;24.626;2022-11-20T04:39:26;64.30;;;31.77;;
8312;SDS011;4194;43.408;24.626;2022-11-20T04:41:51;69.37;;;31.20;;
8312;SDS011;4194;43.408;24.626;2022-11-20T04:44:37;60.40;;;29.30;;
8312;SDS011;4194;43.408;24.626;2022-11-20T04:47:03;63.93;;;30.63;;
8312;SDS011;4194;43.408;24.626;2022-11-20T04:49:29;56.83;;;29.27;;
8312;SDS011;4194;43.408;24.626;2022-11-20T04:51:56;53.30;;;27.63;;
8312;SDS011;4194;43.408;24.626;2022-11-20T04:54:22;64.93;;;31.50;;
8312;SDS011;4194;43.408;24.626;2022-11-20T04:56:49;58.00;;;31.07;;
8312;SDS011;4194;43.408;24.626;2022-11-20T04:59:40;60.33;;;29.60;;
8312;SDS011;4194;43.408;24.626;2022-11-20T05:02:05;69.17;;;32.40;;
8312;SDS011;4194;43.408;24.626;2022-11-20T05:04:31;89.60;;;34.93;;
8312;SDS011;4194;43.408;24.626;2022-11-20T05:06:57;102.10;;;36.50;;
8312;SDS011;4194;43.408;24.626;2022-11-20T05:09:22;88.23;;;34.13;;
8312;SDS011;4194;43.408;24.626;2022-11-20T05:11:48;108.03;;;38.27;;
8312;SDS011;4194;43.408;24.626;2022-11-20T05:14:14;91.57;;;38.63;;
8312;SDS011;4194;43.408;24.626;2022-11-20T05:16:39;149.33;;;41.10;;
8312;SDS011;4194;43.408;24.626;2022-11-20T05:19:05;117.57;;;39.80;;
8312;SDS011;4194;43.408;24.626;2022-11-20T05:21:31;133.87;;;39.80;;
8312;SDS011;4194;43.408;24.626;2022-11-20T05:23:57;102.43;;;41.37;;
8312;SDS011;4194;43.408;24.626;2022-11-20T05:26:23;103.73;;;42.27;;
8312;SDS011;4194;43.408;24.626;2022-11-20T05:28:49;102.60;;;40.33;;
8312;SDS011;4194;43.408;24.626;2022-11-20T05:31:17;104.73;;;38.67;;
8312;SDS011;4194;43.408;24.626;2022-11-20T05:33:45;114.80;;;39.50;;
8312;SDS011;4194;43.408;24.626;2022-11-20T05:36:11;96.50;;;38.63;;
8312;SDS011;4194;43.408;24.626;2022-11-20T05:38:38;105.97;;;40.13;;
8312;SDS011;4194;43.408;24.626;2022-11-20T05:41:09;106.10;;;38.43;;
8312;SDS011;4194;43.408;24.626;2022-11-20T05:43:37;118.93;;;41.43;;
8312;SDS011;4194;43.408;24.626;2022-11-20T05:46:04;112.93;;;43.20;;
8312;SDS011;4194;43.408;24.626;2022-11-20T05:48:31;118.33;;;44.87;;
8312;SDS011;4194;43.408;24.626;2022-11-20T05:50:58;119.73;;;44.10;;
8312;SDS011;4194;43.408;24.626;2022-11-20T05:53:24;110.27;;;44.33;;
8312;SDS011;4194;43.408;24.626;2022-11-20T05:56:06;107.47;;;43.17;;
8312;SDS011;4194;43.408;24.626;2022-11-20T05:58:35;116.37;;;44.47;;
8312;SDS011;4194;43.408;24.626;2022-11-20T06:01:05;110.87;;;44.30;;
8312;SDS011;4194;43.408;24.626;2022-11-20T06:03:32;177.83;;;46.17;;
8312;SDS011;4194;43.408;24.626;2022-11-20T06:05:58;160.10;;;45.33;;
8312;SDS011;4194;43.408;24.626;2022-11-20T06:08:25;111.00;;;44.10;;
8312;SDS011;4194;43.408;24.626;2022-11-20T06:10:50;108.50;;;44.87;;
8312;SDS011;4194;43.408;24.626;2022-11-20T06:13:16;104.30;;;44.83;;
8312;SDS011;4194;43.408;24.626;2022-11-20T06:15:41;95.60;;;44.60;;
8312;SDS011;4194;43.408;24.626;2022-11-20T06:18:07;92.60;;;43.43;;
8312;SDS011;4194;43.408;24.626;2022-11-20T06:20:33;95.83;;;41.87;;
8312;SDS011;4194;43.408;24.626;2022-11-20T06:22:58;98.27;;;41.97;;
8312;SDS011;4194;43.408;24.626;2022-11-20T06:25:24;91.30;;;40.00;;
8312;SDS011;4194;43.408;24.626;2022-11-20T06:27:50;89.13;;;38.83;;
8312;SDS011;4194;43.408;24.626;2022-11-20T06:30:15;92.73;;;42.43;;
8312;SDS011;4194;43.408;24.626;2022-11-20T06:32:41;94.03;;;42.70;;
8312;SDS011;4194;43.408;24.626;2022-11-20T06:35:07;92.23;;;40.23;;
8312;SDS011;4194;43.408;24.626;2022-11-20T06:37:33;80.07;;;38.63;;
8312;SDS011;4194;43.408;24.626;2022-11-20T06:39:58;86.67;;;39.47;;
8312;SDS011;4194;43.408;24.626;2022-11-20T06:42:24;86.17;;;40.23;;
8312;SDS011;4194;43.408;24.626;2022-11-20T06:44:49;88.90;;;40.10;;
8312;SDS011;4194;43.408;24.626;2022-11-20T06:47:15;80.33;;;39.87;;
8312;SDS011;4194;43.408;24.626;2022-11-20T06:49:41;79.37;;;39.10;;
8312;SDS011;4194;43.408;24.626;2022-11-20T06:52:07;74.27;;;38.93;;
8312;SDS011;4194;43.408;24.626;2022-11-20T06:54:33;77.73;;;36.13;;
8312;SDS011;4194;43.408;24.626;2022-11-20T06:56:58;65.07;;;35.00;;
8312;SDS011;4194;43.408;24.626;2022-11-20T06:59:24;68.90;;;38.03;;
8312;SDS011;4194;43.408;24.626;2022-11-20T07:01:49;76.97;;;36.90;;
8312;SDS011;4194;43.408;24.626;2022-11-20T07:04:15;83.93;;;39.53;;
8312;SDS011;4194;43.408;24.626;2022-11-20T07:06:41;79.67;;;38.53;;
8312;SDS011;4194;43.408;24.626;2022-11-20T07:09:06;78.30;;;37.87;;
8312;SDS011;4194;43.408;24.626;2022-11-20T07:11:32;82.00;;;36.80;;
8312;SDS011;4194;43.408;24.626;2022-11-20T07:13:58;70.33;;;36.97;;
8312;SDS011;4194;43.408;24.626;2022-11-20T07:16:23;71.63;;;36.50;;
8312;SDS011;4194;43.408;24.626;2022-11-20T07:18:49;70.17;;;37.47;;
8312;SDS011;4194;43.408;24.626;2022-11-20T07:21:15;69.70;;;36.90;;
8312;SDS011;4194;43.408;24.626;2022-11-20T07:23:40;70.67;;;38.20;;
8312;SDS011;4194;43.408;24.626;2022-11-20T07:26:07;71.60;;;36.90;;
8312;SDS011;4194;43.408;24.626;2022-11-20T07:28:34;75.53;;;37.87;;
8312;SDS011;4194;43.408;24.626;2022-11-20T07:31:00;64.87;;;35.63;;
8312;SDS011;4194;43.408;24.626;2022-11-20T07:33:26;65.37;;;33.53;;
8312;SDS011;4194;43.408;24.626;2022-11-20T07:35:52;55.67;;;32.47;;
8312;SDS011;4194;43.408;24.626;2022-11-20T07:38:18;61.73;;;35.83;;
8312;SDS011;4194;43.408;24.626;2022-11-20T07:40:44;55.50;;;32.00;;
8312;SDS011;4194;43.408;24.626;2022-11-20T07:43:09;57.60;;;31.67;;
8312;SDS011;4194;43.408;24.626;2022-11-20T07:45:35;58.17;;;31.87;;
8312;SDS011;4194;43.408;24.626;2022-11-20T07:48:01;48.67;;;30.00;;
8312;SDS011;4194;43.408;24.626;2022-11-20T07:50:27;51.20;;;29.30;;
8312;SDS011;4194;43.408;24.626;2022-11-20T07:52:59;48.23;;;29.20;;
8312;SDS011;4194;43.408;24.626;2022-11-20T07:55:26;49.13;;;28.57;;
8312;SDS011;4194;43.408;24.626;2022-11-20T07:57:55;49.30;;;28.40;;
8312;SDS011;4194;43.408;24.626;2022-11-20T08:00:22;52.40;;;29.57;;
8312;SDS011;4194;43.408;24.626;2022-11-20T08:02:48;51.27;;;30.23;;
8312;SDS011;4194;43.408;24.626;2022-11-20T08:05:14;48.27;;;28.33;;
8312;SDS011;4194;43.408;24.626;2022-11-20T08:07:40;43.07;;;26.50;;
8312;SDS011;4194;43.408;24.626;2022-11-20T08:10:07;41.30;;;26.87;;
8312;SDS011;4194;43.408;24.626;2022-11-20T08:12:35;44.50;;;27.80;;
8312;SDS011;4194;43.408;24.626;2022-11-20T08:15:19;42.50;;;25.80;;
8312;SDS011;4194;43.408;24.626;2022-11-20T08:17:45;45.30;;;25.63;;
8312;SDS011;4194;43.408;24.626;2022-11-20T08:20:11;42.07;;;27.87;;
8312;SDS011;4194;43.408;24.626;2022-11-20T08:22:37;40.50;;;24.80;;
8312;SDS011;4194;43.408;24.626;2022-11-20T08:25:03;39.70;;;22.90;;
8312;SDS011;4194;43.408;24.626;2022-11-20T08:27:31;35.47;;;23.93;;
8312;SDS011;4194;43.408;24.626;2022-11-20T08:29:57;42.53;;;27.17;;
8312;SDS011;4194;43.408;24.626;2022-11-20T08:32:23;43.20;;;28.80;;
8312;SDS011;4194;43.408;24.626;2022-11-20T08:34:49;42.27;;;28.07;;
8312;SDS011;4194;43.408;24.626;2022-11-20T08:37:14;38.23;;;24.30;;
8312;SDS011;4194;43.408;24.626;2022-11-20T08:39:40;40.27;;;25.57;;
8312;SDS011;4194;43.408;24.626;2022-11-20T08:42:09;31.40;;;20.97;;
8312;SDS011;4194;43.408;24.626;2022-11-20T08:44:34;34.57;;;22.23;;
8312;SDS011;4194;43.408;24.626;2022-11-20T08:47:00;34.27;;;22.67;;
8312;SDS011;4194;43.408;24.626;2022-11-20T08:49:26;32.17;;;20.70;;
8312;SDS011;4194;43.408;24.626;2022-11-20T08:51:51;31.00;;;19.90;;
8312;SDS011;4194;43.408;24.626;2022-11-20T08:54:20;26.73;;;19.10;;
8312;SDS011;4194;43.408;24.626;2022-11-20T08:56:47;31.87;;;20.37;;
8312;SDS011;4194;43.408;24.626;2022-11-20T08:59:13;32.77;;;18.67;;
8312;SDS011;4194;43.408;24.626;2022-11-20T09:01:39;31.60;;;18.67;;
8312;SDS011;4194;43.408;24.626;2022-11-20T09:04:04;27.27;;;19.20;;
8312;SDS011;4194;43.408;24.626;2022-11-20T09:06:30;28.10;;;20.03;;
8312;SDS011;4194;43.408;24.626;2022-11-20T09:08:56;27.10;;;18.57;;
8312;SDS011;4194;43.408;24.626;2022-11-20T09:11:22;28.07;;;18.70;;
8312;SDS011;4194;43.408;24.626;2022-11-20T09:13:48;27.07;;;19.60;;
8312;SDS011;4194;43.408;24.626;2022-11-20T09:16:13;26.83;;;19.03;;
8312;SDS011;4194;43.408;24.626;2022-11-20T09:18:39;28.37;;;20.70;;
8312;SDS011;4194;43.408;24.626;2022-11-20T09:21:06;25.17;;;17.97;;
8312;SDS011;4194;43.408;24.626;2022-11-20T09:23:36;27.43;;;19.87;;
8312;SDS011;4194;43.408;24.626;2022-11-20T09:26:08;28.97;;;18.83;;
8312;SDS011;4194;43.408;24.626;2022-11-20T09:28:35;26.07;;;18.40;;
8312;SDS011;4194;43.408;24.626;2022-11-20T09:31:03;25.07;;;18.47;;
8312;SDS011;4194;43.408;24.626;2022-11-20T09:33:32;25.00;;;17.77;;
8312;SDS011;4194;43.408;24.626;2022-11-20T09:35:58;25.27;;;19.10;;
8312;SDS011;4194;43.408;24.626;2022-11-20T09:38:23;25.97;;;18.07;;
8312;SDS011;4194;43.408;24.626;2022-11-20T09:41:03;22.80;;;17.43;;
8312;SDS011;4194;43.408;24.626;2022-11-20T09:46:22;25.70;;;18.67;;
8312;SDS011;4194;43.408;24.626;2022-11-20T09:51:55;24.73;;;18.00;;
8312;SDS011;4194;43.408;24.626;2022-11-20T09:54:42;25.17;;;19.10;;
8312;SDS011;4194;43.408;24.626;2022-11-20T09:57:10;26.00;;;18.03;;
8312;SDS011;4194;43.408;24.626;2022-11-20T09:59:41;27.07;;;17.73;;
8312;SDS011;4194;43.408;24.626;2022-11-20T10:04:49;24.53;;;17.30;;
8312;SDS011;4194;43.408;24.626;2022-11-20T10:07:36;28.73;;;18.20;;
8312;SDS011;4194;43.408;24.626;2022-11-20T10:10:17;28.03;;;19.33;;
8312;SDS011;4194;43.408;24.626;2022-11-20T10:13:05;21.07;;;15.63;;
8312;SDS011;4194;43.408;24.626;2022-11-20T10:18:27;22.93;;;16.47;;
8312;SDS011;4194;43.408;24.626;2022-11-20T10:29:12;20.97;;;15.60;;
8312;SDS011;4194;43.408;24.626;2022-11-20T10:31:41;23.67;;;15.60;;
8312;SDS011;4194;43.408;24.626;2022-11-20T10:39:30;23.97;;;17.23;;
8312;SDS011;4194;43.408;24.626;2022-11-20T10:42:01;25.27;;;17.53;;
8312;SDS011;4194;43.408;24.626;2022-11-20T10:44:27;27.43;;;19.23;;
8312;SDS011;4194;43.408;24.626;2022-11-20T10:47:16;26.27;;;19.20;;
8312;SDS011;4194;43.408;24.626;2022-11-20T10:49:43;27.07;;;18.77;;
8312;SDS011;4194;43.408;24.626;2022-11-20T10:58:10;33.23;;;19.90;;
8312;SDS011;4194;43.408;24.626;2022-11-20T11:00:39;28.00;;;19.97;;
8312;SDS011;4194;43.408;24.626;2022-11-20T11:03:14;31.63;;;21.47;;
8312;SDS011;4194;43.408;24.626;2022-11-20T11:05:52;30.30;;;21.23;;
8312;SDS011;4194;43.408;24.626;2022-11-20T11:08:26;32.47;;;20.73;;
8312;SDS011;4194;43.408;24.626;2022-11-20T11:10:59;31.90;;;21.43;;
8312;SDS011;4194;43.408;24.626;2022-11-20T11:13:30;36.50;;;23.73;;
8312;SDS011;4194;43.408;24.626;2022-11-20T11:15:56;34.77;;;25.27;;
8312;SDS011;4194;43.408;24.626;2022-11-20T11:18:23;35.07;;;23.80;;
8312;SDS011;4194;43.408;24.626;2022-11-20T11:20:55;38.43;;;26.77;;
8312;SDS011;4194;43.408;24.626;2022-11-20T11:23:41;39.67;;;25.67;;
8312;SDS011;4194;43.408;24.626;2022-11-20T11:26:40;42.93;;;27.47;;
8312;SDS011;4194;43.408;24.626;2022-11-20T11:29:00;41.87;;;26.27;;
8312;SDS011;4194;43.408;24.626;2022-11-20T11:31:32;39.00;;;26.23;;
8312;SDS011;4194;43.408;24.626;2022-11-20T11:34:12;40.90;;;25.97;;
8312;SDS011;4194;43.408;24.626;2022-11-20T11:36:39;39.77;;;27.27;;
8312;SDS011;4194;43.408;24.626;2022-11-20T11:39:08;38.90;;;26.77;;
8312;SDS011;4194;43.408;24.626;2022-11-20T11:41:40;47.40;;;30.43;;
8312;SDS011;4194;43.408;24.626;2022-11-20T11:44:15;44.37;;;29.03;;
8312;SDS011;4194;43.408;24.626;2022-11-20T11:47:00;39.07;;;27.20;;
8312;SDS011;4194;43.408;24.626;2022-11-20T11:49:28;38.97;;;27.40;;
8312;SDS011;4194;43.408;24.626;2022-11-20T11:52:14;47.63;;;30.60;;
8312;SDS011;4194;43.408;24.626;2022-11-20T11:57:32;41.37;;;28.97;;
8312;SDS011;4194;43.408;24.626;2022-11-20T12:00:14;37.27;;;27.07;;
8312;SDS011;4194;43.408;24.626;2022-11-20T12:11:02;38.33;;;23.50;;
8312;SDS011;4194;43.408;24.626;2022-11-20T12:16:19;32.70;;;23.33;;
8312;SDS011;4194;43.408;24.626;2022-11-20T12:18:49;32.37;;;24.07;;
8312;SDS011;4194;43.408;24.626;2022-11-20T12:26:35;37.63;;;24.97;;
8312;SDS011;4194;43.408;24.626;2022-11-20T12:40:02;34.90;;;23.37;;
8312;SDS011;4194;43.408;24.626;2022-11-20T12:42:50;32.97;;;23.77;;
8312;SDS011;4194;43.408;24.626;2022-11-20T12:45:54;33.10;;;23.87;;
8312;SDS011;4194;43.408;24.626;2022-11-20T12:48:57;37.10;;;26.30;;
8312;SDS011;4194;43.408;24.626;2022-11-20T12:56:43;38.67;;;25.73;;
8312;SDS011;4194;43.408;24.626;2022-11-20T13:01:58;43.67;;;26.20;;
8312;SDS011;4194;43.408;24.626;2022-11-20T13:07:18;41.67;;;25.47;;
8312;SDS011;4194;43.408;24.626;2022-11-20T13:09:47;38.17;;;23.47;;
8312;SDS011;4194;43.408;24.626;2022-11-20T13:17:28;29.87;;;21.07;;
8312;SDS011;4194;43.408;24.626;2022-11-20T13:20:02;26.60;;;20.23;;
8312;SDS011;4194;43.408;24.626;2022-11-20T13:22:48;27.73;;;19.27;;
8312;SDS011;4194;43.408;24.626;2022-11-20T13:25:29;33.07;;;23.07;;
8312;SDS011;4194;43.408;24.626;2022-11-20T13:28:00;38.60;;;26.83;;
8312;SDS011;4194;43.408;24.626;2022-11-20T13:30:51;38.63;;;25.53;;
8312;SDS011;4194;43.408;24.626;2022-11-20T13:36:04;42.37;;;28.37;;
8312;SDS011;4194;43.408;24.626;2022-11-20T13:38:49;43.33;;;27.40;;
8312;SDS011;4194;43.408;24.626;2022-11-20T13:41:53;47.53;;;28.47;;
8312;SDS011;4194;43.408;24.626;2022-11-20T13:47:03;44.60;;;30.70;;
8312;SDS011;4194;43.408;24.626;2022-11-20T13:49:44;54.07;;;34.10;;
8312;SDS011;4194;43.408;24.626;2022-11-20T13:55:11;49.07;;;32.83;;
8312;SDS011;4194;43.408;24.626;2022-11-20T13:58:19;49.10;;;31.60;;
8312;SDS011;4194;43.408;24.626;2022-11-20T14:03:44;47.63;;;29.23;;
8312;SDS011;4194;43.408;24.626;2022-11-20T14:06:44;50.63;;;31.17;;
8312;SDS011;4194;43.408;24.626;2022-11-20T14:09:11;53.30;;;32.13;;
8312;SDS011;4194;43.408;24.626;2022-11-20T14:11:45;43.90;;;29.60;;
8312;SDS011;4194;43.408;24.626;2022-11-20T14:16:45;37.10;;;26.20;;
8312;SDS011;4194;43.408;24.626;2022-11-20T14:21:51;42.40;;;29.90;;
8312;SDS011;4194;43.408;24.626;2022-11-20T14:24:23;48.40;;;31.63;;
8312;SDS011;4194;43.408;24.626;2022-11-20T14:26:51;44.77;;;32.23;;
8312;SDS011;4194;43.408;24.626;2022-11-20T14:29:18;49.93;;;35.07;;
8312;SDS011;4194;43.408;24.626;2022-11-20T14:31:46;62.03;;;45.67;;
8312;SDS011;4194;43.408;24.626;2022-11-20T14:34:15;67.63;;;50.30;;
8312;SDS011;4194;43.408;24.626;2022-11-20T14:36:46;48.63;;;33.77;;
8312;SDS011;4194;43.408;24.626;2022-11-20T14:39:12;46.97;;;35.00;;
8312;SDS011;4194;43.408;24.626;2022-11-20T14:41:52;44.60;;;35.30;;
8312;SDS011;4194;43.408;24.626;2022-11-20T14:44:19;44.50;;;33.00;;
8312;SDS011;4194;43.408;24.626;2022-11-20T14:46:49;32.83;;;24.90;;
8312;SDS011;4194;43.408;24.626;2022-11-20T14:49:16;40.60;;;29.23;;
8312;SDS011;4194;43.408;24.626;2022-11-20T14:51:42;37.10;;;27.83;;
8312;SDS011;4194;43.408;24.626;2022-11-20T14:54:11;34.70;;;26.43;;
8312;SDS011;4194;43.408;24.626;2022-11-20T14:56:37;43.70;;;30.70;;
8312;SDS011;4194;43.408;24.626;2022-11-20T14:59:03;48.60;;;33.17;;
8312;SDS011;4194;43.408;24.626;2022-11-20T15:01:30;49.73;;;34.90;;
8312;SDS011;4194;43.408;24.626;2022-11-20T15:04:04;45.40;;;33.10;;
8312;SDS011;4194;43.408;24.626;2022-11-20T15:06:32;42.17;;;31.90;;
8312;SDS011;4194;43.408;24.626;2022-11-20T15:08:58;47.30;;;31.00;;
8312;SDS011;4194;43.408;24.626;2022-11-20T15:11:33;35.87;;;28.13;;
8312;SDS011;4194;43.408;24.626;2022-11-20T15:14:04;42.43;;;30.23;;
8312;SDS011;4194;43.408;24.626;2022-11-20T15:16:31;31.27;;;24.43;;
8312;SDS011;4194;43.408;24.626;2022-11-20T15:18:57;35.67;;;27.10;;
8312;SDS011;4194;43.408;24.626;2022-11-20T15:21:25;37.33;;;27.20;;
8312;SDS011;4194;43.408;24.626;2022-11-20T15:23:50;35.60;;;27.60;;
8312;SDS011;4194;43.408;24.626;2022-11-20T15:26:26;31.43;;;24.23;;
8312;SDS011;4194;43.408;24.626;2022-11-20T15:28:52;34.33;;;23.80;;
8312;SDS011;4194;43.408;24.626;2022-11-20T15:31:20;31.03;;;24.07;;
8312;SDS011;4194;43.408;24.626;2022-11-20T15:33:47;22.63;;;18.20;;
8312;SDS011;4194;43.408;24.626;2022-11-20T15:36:13;21.37;;;16.43;;
8312;SDS011;4194;43.408;24.626;2022-11-20T15:38:39;28.70;;;20.10;;
8312;SDS011;4194;43.408;24.626;2022-11-20T15:41:05;27.10;;;21.00;;
8312;SDS011;4194;43.408;24.626;2022-11-20T15:43:31;27.07;;;21.47;;
8312;SDS011;4194;43.408;24.626;2022-11-20T15:45:59;34.63;;;27.17;;
8312;SDS011;4194;43.408;24.626;2022-11-20T15:48:27;39.00;;;28.13;;
8312;SDS011;4194;43.408;24.626;2022-11-20T15:50:57;33.60;;;28.60;;
8312;SDS011;4194;43.408;24.626;2022-11-20T15:53:36;34.93;;;29.83;;
8312;SDS011;4194;43.408;24.626;2022-11-20T15:56:03;31.97;;;26.13;;
8312;SDS011;4194;43.408;24.626;2022-11-20T15:58:29;30.97;;;23.63;;
8312;SDS011;4194;43.408;24.626;2022-11-20T16:00:55;29.60;;;22.83;;
8312;SDS011;4194;43.408;24.626;2022-11-20T16:03:22;23.10;;;18.57;;
8312;SDS011;4194;43.408;24.626;2022-11-20T16:05:48;26.40;;;19.43;;
8312;SDS011;4194;43.408;24.626;2022-11-20T16:08:14;19.50;;;15.77;;
8312;SDS011;4194;43.408;24.626;2022-11-20T16:10:39;21.77;;;14.20;;
8312;SDS011;4194;43.408;24.626;2022-11-20T16:13:11;20.23;;;16.57;;
8312;SDS011;4194;43.408;24.626;2022-11-20T16:15:58;21.07;;;13.87;;
8312;SDS011;4194;43.408;24.626;2022-11-20T16:18:24;15.33;;;11.17;;
8312;SDS011;4194;43.408;24.626;2022-11-20T16:20:51;12.40;;;9.43;;
8312;SDS011;4194;43.408;24.626;2022-11-20T16:23:18;13.17;;;10.67;;
8312;SDS011;4194;43.408;24.626;2022-11-20T16:25:45;12.03;;;10.73;;